Latest Weather Observations for Halls Creek

IDW60801

Issued at 3:02 pm WST Friday 27 February 2015 (issued every 30 minutes, with the page automatically refreshed every 10 minutes)

About weather observations | Map of weather stations | Latest weather observations for WA | Other Formats
Station Details ID: 002012 Name: HALLS CREEK AIRPORT Lat: -18.23 Lon: 127.66 Height: 422.0 m
Data from the previous 72 hours. | See also: Recent months at Halls Creek
Date/Time
WST
Temp
°C
App
Temp
°C
Dew
Point
Rel
Hum
%
Delta-T
°C
Wind Press
QNH
hPa
Press
MSL
hPa
Rain
since 9 am
mm
Dir
 
Spd
km/h
Gust
km/h
Spd
kts
Gust
kts
27/03:00pm 32.9 35.9 20.9 49 8.2 SSW 6 13 3 7 1006.7 1003.3 0.0
27/02:30pm 31.8 34.1 19.9 49 8.0 S 7 17 4 9 1007.2 - 0.0
27/02:00pm 31.2 33.5 19.9 51 7.6 SSE 7 13 4 7 1007.9 - 0.0
27/01:30pm 30.8 32.5 18.6 48 8.0 SSE 7 17 4 9 1008.3 - 0.0
27/01:00pm 30.8 32.3 17.5 45 8.6 SSE 6 11 3 6 1008.8 - 0.0
27/12:30pm 29.5 31.6 18.1 50 7.4 S 4 11 2 6 1008.9 - 0.0
27/12:00pm 28.7 31.4 19.5 57 6.1 SW 4 7 2 4 1009.6 1006.3 0.0
27/11:30am 27.2 29.9 19.5 62 5.1 W 4 9 2 5 1010.3 - 0.0
27/11:00am 26.5 29.2 20.3 68 4.1 WNW 6 9 3 5 1011.0 - 0.0
27/10:30am 25.6 28.4 20.5 73 3.4 NW 6 11 3 6 1011.6 - 0.0
27/10:00am 25.1 28.1 20.9 77 2.8 N 6 15 3 8 1012.0 - 0.0
27/09:30am 23.2 26.2 20.8 86 1.6 N 6 15 3 8 1012.8 - 0.0
27/09:00am 22.0 24.6 20.5 91 1.0 N 7 19 4 10 1013.4 1010.1 13.4
27/08:30am 21.8 23.4 20.7 93 0.7 NNE 13 30 7 16 1013.4 - 13.4
27/08:00am 25.5 29.4 23.0 86 1.7 NE 7 19 4 10 1013.1 - 13.0
27/07:30am 25.8 29.9 23.2 85 1.8 E 7 15 4 8 1012.6 - 13.0
27/07:00am 25.5 29.8 22.7 84 1.9 W 4 13 2 7 1011.0 - 13.0
27/06:30am 25.0 29.1 23.0 89 1.4 WSW 6 13 3 7 1010.1 - 13.0
27/06:00am 24.8 29.4 23.1 90 1.2 WSW 4 9 2 5 1010.1 1006.7 13.0
27/05:30am 24.8 28.3 22.9 89 1.3 S 9 19 5 10 1010.3 - 13.0
27/05:00am 24.7 28.3 23.0 90 1.2 S 9 19 5 10 1010.1 - 13.0
27/04:30am 24.3 28.5 22.5 90 1.2 SSW 4 7 2 4 1009.0 - 13.0
27/04:00am 24.4 28.9 22.9 91 1.0 WSW 4 6 2 3 1008.6 - 13.0
27/03:30am 24.4 29.6 22.9 91 1.0 CALM 0 4 0 2 1008.1 - 13.0
27/03:00am 24.4 29.5 22.6 90 1.2 CALM 0 4 0 2 1007.7 1004.3 13.0
27/02:30am 24.5 29.1 22.4 88 1.4 WNW 2 6 1 3 1007.4 - 13.0
27/02:00am 24.6 28.4 22.4 87 1.5 W 6 11 3 6 1007.6 - 13.0
27/01:30am 24.6 28.5 22.6 89 1.4 W 6 11 3 6 1007.8 - 13.0
27/01:00am 24.6 28.6 22.1 86 1.7 WNW 4 7 2 4 1008.2 - 13.0
27/12:30am 24.7 28.2 21.9 84 1.9 W 6 9 3 5 1008.6 - 13.0
27/12:00am 24.6 28.3 22.2 86 1.6 WSW 6 11 3 6 1009.0 1005.7 13.0
 
Date/Time
WST
Temp
°C
App
Temp
°C
Dew
Point
Rel
Hum
%
Delta-T
°C
Wind Press
QNH
hPa
Press
MSL
hPa
Rain
since 9 am
mm
Dir
 
Spd
km/h
Gust
km/h
Spd
kts
Gust
kts
26/11:30pm 24.7 28.7 22.7 89 1.4 SW 6 11 3 6 1009.4 - 13.0
26/11:00pm 25.0 29.5 23.7 92 0.9 S 6 9 3 5 1009.3 - 13.0
26/10:30pm 25.3 30.0 22.7 85 1.8 W 2 7 1 4 1009.3 - 13.0
26/10:00pm 25.2 30.1 23.6 91 1.1 W 4 9 2 5 1009.0 - 13.0
26/09:30pm 25.0 29.7 23.3 90 1.2 NNW 4 6 2 3 1009.2 - 13.0
26/09:00pm 24.6 29.7 23.4 93 0.8 ESE 2 4 1 2 1009.2 1005.9 13.0
26/08:30pm 24.3 29.6 23.1 93 0.8 CALM 0 2 0 1 1008.7 - 13.0
26/08:00pm 24.0 28.4 22.8 93 0.8 NNE 4 9 2 5 1008.3 - 13.0
26/07:30pm 23.9 28.6 22.6 92 0.9 NE 2 7 1 4 1008.4 - 13.0
26/07:00pm 23.2 27.7 22.2 94 0.7 N 2 6 1 3 1008.2 - 13.0
26/06:30pm 22.6 27.1 22.2 98 0.3 W 2 6 1 3 1008.3 - 12.8
26/06:00pm 22.4 25.9 22.1 98 0.2 NNW 7 17 4 9 1010.2 1006.8 12.8
26/05:30pm 22.3 21.9 22.3 100 0.0 NE 28 63 15 34 1010.9 - 4.8
26/05:27pm 23.1 22.4 22.5 96 0.4 NE 30 63 16 34 1010.7 - 0.8
26/05:00pm 28.2 30.1 21.3 66 4.7 NW 13 24 7 13 1008.3 - 0.0
26/04:30pm 29.2 30.0 21.3 62 5.4 W 19 32 10 17 1007.2 - 0.0
26/04:00pm 30.1 33.2 21.5 60 5.9 SW 7 19 4 10 1006.7 - 0.0
26/03:30pm 29.6 31.1 21.2 60 5.7 S 15 32 8 17 1006.1 - 0.0
26/03:00pm 31.2 33.0 20.4 52 7.3 SW 11 26 6 14 1006.0 1002.6 0.0
26/02:30pm 32.4 33.4 18.7 44 9.1 SSE 11 20 6 11 1005.7 - 0.0
26/02:00pm 32.6 32.5 19.5 46 8.8 SE 19 35 10 19 1005.5 - 0.0
26/01:30pm 36.7 38.4 18.0 33 12.4 E 6 13 3 7 1005.8 - 0.0
26/01:00pm 36.8 38.3 18.0 33 12.5 ENE 7 19 4 10 1006.2 - 0.0
26/12:30pm 35.9 38.5 19.3 37 11.2 NNW 4 9 2 5 1007.1 - 0.0
26/12:00pm 35.6 38.2 20.0 40 10.6 NW 6 11 3 6 1008.3 1004.9 0.0
26/11:30am 35.1 37.5 19.7 40 10.4 NNW 6 15 3 8 1009.0 - 0.0
26/11:00am 35.4 38.0 20.1 40 10.4 SSE 6 13 3 7 1009.5 - 0.0
26/10:30am 35.3 37.7 20.9 43 9.9 SSW 9 20 5 11 1009.9 - 0.0
26/10:00am 34.6 37.0 20.9 44 9.4 WSW 9 20 5 11 1010.3 - 0.0
26/09:30am 33.4 35.2 20.4 46 8.8 W 11 24 6 13 1010.5 - 0.0
26/09:00am 32.9 34.7 20.3 47 8.5 W 11 22 6 12 1010.6 1007.2 0.0
26/08:30am 32.0 34.2 20.5 50 7.8 WSW 9 24 5 13 1010.8 - 0.0
26/08:00am 31.3 33.5 20.5 52 7.3 W 9 19 5 10 1010.6 - 0.0
26/07:30am 30.6 33.4 20.9 56 6.6 W 7 19 4 10 1010.5 - 0.0
26/07:00am 29.0 31.0 20.8 61 5.5 W 11 22 6 12 1010.5 - 0.0
26/06:30am 27.9 31.1 21.2 67 4.5 W 6 11 3 6 1010.3 - 0.0
26/06:00am 26.4 30.1 21.5 74 3.3 WSW 4 13 2 7 1010.2 1006.8 0.0
26/05:30am 25.4 29.1 21.4 78 2.7 WSW 4 6 2 3 1009.8 - 0.0
26/05:00am 25.6 29.4 21.6 78 2.7 W 4 6 2 3 1009.5 - 0.0
26/04:30am 25.6 29.6 21.4 77 2.8 W 2 4 1 2 1009.5 - 0.0
26/04:00am 26.0 30.0 21.4 76 3.1 WNW 2 4 1 2 1009.3 - 0.0
26/03:30am 26.0 30.1 21.6 76 3.0 WSW 2 4 1 2 1009.1 - 0.0
26/03:00am 26.6 30.3 21.4 73 3.5 W 4 7 2 4 1008.9 1005.5 0.0
26/02:30am 26.5 30.2 21.5 74 3.4 W 4 7 2 4 1009.2 - 0.0
26/02:00am 26.7 30.8 21.5 73 3.5 NW 2 6 1 3 1009.3 - 0.0
26/01:30am 26.8 30.4 21.3 72 3.7 NNW 4 6 2 3 1009.4 - 0.0
26/01:00am 27.3 31.2 21.2 69 4.1 NW 2 7 1 4 1009.5 - 0.0
26/12:30am 27.5 31.6 21.6 70 4.0 WNW 2 4 1 2 1009.9 - 0.0
26/12:00am 28.1 32.0 21.1 65 4.7 N 2 4 1 2 1010.1 1006.7 0.0
 
Date/Time
WST
Temp
°C
App
Temp
°C
Dew
Point
Rel
Hum
%
Delta-T
°C
Wind Press
QNH
hPa
Press
MSL
hPa
Rain
since 9 am
mm
Dir
 
Spd
km/h
Gust
km/h
Spd
kts
Gust
kts
25/11:30pm 28.4 32.1 20.8 63 5.1 N 2 4 1 2 1010.3 - 0.0
25/11:00pm 28.4 32.3 21.2 65 4.9 N 2 4 1 2 1010.6 - 0.0
25/10:30pm 28.5 32.3 20.9 63 5.1 NNW 2 4 1 2 1010.8 - 0.0
25/10:00pm 28.8 32.0 20.6 61 5.5 N 4 7 2 4 1011.2 - 0.0
25/09:30pm 29.1 32.3 20.5 59 5.8 NNW 4 6 2 3 1010.9 - 0.0
25/09:00pm 29.7 32.7 20.1 56 6.4 NW 4 6 2 3 1010.6 1007.2 0.0
25/08:30pm 30.5 34.0 20.4 54 6.8 NE 2 4 1 2 1010.4 - 0.0
25/08:00pm 31.1 34.2 19.6 50 7.7 N 2 4 1 2 1010.2 - 0.0
25/07:30pm 31.5 34.6 19.5 49 8.0 NNE 2 6 1 3 1010.2 - 0.0
25/07:00pm 31.6 34.2 19.3 48 8.2 NE 4 7 2 4 1010.1 - 0.0
25/06:30pm 32.0 33.9 19.0 46 8.6 ENE 7 11 4 6 1009.7 - 0.0
25/06:00pm 32.6 34.5 18.5 43 9.3 ENE 6 13 3 7 1009.1 1005.8 0.0
25/05:30pm 33.5 35.0 18.0 39 10.2 ENE 7 15 4 8 1008.6 - 0.0
25/05:00pm 34.2 36.3 18.9 40 10.2 ENE 6 13 3 7 1008.3 - 0.0
25/04:30pm 34.3 36.0 18.5 39 10.5 E 7 15 4 8 1008.0 - 0.0
25/04:00pm 34.7 36.6 19.0 39 10.5 E 7 19 4 10 1007.8 - 0.0
25/03:30pm 34.8 36.5 18.6 38 10.8 NE 7 19 4 10 1007.6 - 0.0
25/03:00pm 34.6 36.1 18.1 37 10.9 E 7 19 4 10 1007.6 1004.2 0.0
25/02:30pm 34.8 35.8 17.8 36 11.2 E 9 22 5 12 1007.7 - 0.0
25/02:00pm 34.8 35.3 17.4 35 11.4 E 11 24 6 13 1008.3 - 0.0
25/01:30pm 34.5 35.8 17.6 36 11.1 ENE 7 20 4 11 1008.7 - 0.0
25/01:00pm 33.7 35.2 18.1 39 10.3 NE 7 17 4 9 1009.1 - 0.0
25/12:30pm 33.4 35.2 18.4 41 9.9 NE 6 17 3 9 1009.7 - 0.0
25/12:00pm 32.5 34.2 18.6 43 9.2 ENE 7 17 4 9 1010.2 1006.8 0.0
25/11:30am 32.5 34.3 19.5 46 8.7 E 9 19 5 10 1010.6 - 0.0
25/11:00am 31.3 33.7 20.0 51 7.6 ESE 7 19 4 10 1011.2 - 0.0
25/10:30am 31.1 33.6 20.2 52 7.3 ENE 7 15 4 8 1011.9 - 0.0
25/10:00am 30.6 33.1 20.2 53 7.0 NNE 7 15 4 8 1012.6 - 0.0
25/09:30am 30.6 34.6 22.0 60 5.9 W 4 9 2 5 1013.0 - 0.0
25/09:00am 29.2 33.7 22.2 66 4.8 S 2 7 1 4 1013.5 1010.2 0.0
25/08:30am 28.6 32.7 22.3 68 4.3 SW 4 7 2 4 1013.5 - 0.0
25/08:00am 27.9 31.7 22.4 72 3.8 W 6 11 3 6 1013.1 - 0.0
25/07:30am 26.7 31.2 22.9 79 2.6 NW 4 9 2 5 1013.0 - 0.0
25/07:00am 25.8 29.6 21.7 78 2.8 NNE 4 7 2 4 1012.9 - 0.0
25/06:30am 26.6 30.2 22.0 76 3.1 NNE 6 9 3 5 1012.7 - 0.0
25/06:20am 26.8 30.7 21.8 74 3.4 NE 4 7 2 4 1012.7 - 0.0
25/06:00am 27.0 30.7 21.4 71 3.8 NE 4 6 2 3 1012.7 1009.3 0.0
25/05:30am 26.8 31.0 21.8 74 3.4 WSW 2 4 1 2 1012.2 - 0.0
25/05:00am 27.0 30.5 21.1 70 4.0 NW 4 6 2 3 1011.9 - 0.0
25/04:30am 27.1 30.7 21.2 70 4.0 NW 4 6 2 3 1011.5 - 0.0
25/04:00am 27.3 31.0 20.7 67 4.4 NNW 2 4 1 2 1011.4 - 0.0
25/03:30am 27.4 31.1 20.7 67 4.5 NNW 2 6 1 3 1010.9 - 0.0
25/03:00am 27.7 31.2 20.4 64 4.9 NW 2 4 1 2 1010.7 1007.3 0.0
25/02:30am 27.4 31.5 20.7 67 4.5 CALM 0 2 0 1 1010.7 - 0.0
25/02:00am 26.8 30.7 21.2 71 3.8 SSE 2 4 1 2 1010.6 - 0.0
25/01:30am 27.0 31.0 20.6 68 4.3 CALM 0 2 0 1 1010.5 - 0.0
25/01:00am 27.0 30.6 20.6 68 4.3 E 2 4 1 2 1010.8 - 0.0
25/12:30am 27.5 31.7 21.0 67 4.4 CALM 0 4 0 2 1010.7 - 0.0
25/12:00am 27.7 31.4 20.7 65 4.7 N 2 4 1 2 1010.8 1007.4 0.0
 
Date/Time
WST
Temp
°C
App
Temp
°C
Dew
Point
Rel
Hum
%
Delta-T
°C
Wind Press
QNH
hPa
Press
MSL
hPa
Rain
since 9 am
mm
Dir
 
Spd
km/h
Gust
km/h
Spd
kts
Gust
kts
24/11:30pm 28.1 31.5 20.1 62 5.3 N 2 6 1 3 1011.0 - 0.0
24/11:00pm 28.4 31.5 20.3 61 5.4 NNW 4 7 2 4 1011.2 - 0.0
24/10:30pm 28.7 31.6 19.8 58 5.9 NNW 4 7 2 4 1011.4 - 0.0
24/10:00pm 29.1 32.2 19.6 56 6.3 N 2 6 1 3 1011.4 - 0.0
24/09:30pm 29.7 32.6 19.1 53 7.0 NE 2 6 1 3 1011.4 - 0.0
24/09:00pm 29.9 32.8 19.0 52 7.2 N 2 6 1 3 1011.2 1007.9 0.0
24/08:30pm 30.2 32.6 18.8 50 7.5 N 4 7 2 4 1011.1 - 0.0
24/08:00pm 30.5 32.8 18.6 49 7.8 NNW 4 7 2 4 1010.6 - 0.0
24/07:30pm 31.2 33.3 18.0 45 8.6 NNW 4 11 2 6 1010.2 - 0.0
24/07:00pm 31.6 33.2 17.8 43 9.0 NNW 6 9 3 5 1009.8 - 0.0
24/06:30pm 32.2 33.6 17.4 41 9.6 N 6 9 3 5 1009.5 - 0.0
24/06:00pm 33.1 34.0 16.7 37 10.6 N 7 15 4 8 1009.2 1005.9 0.0
24/05:30pm 34.0 35.1 16.7 35 11.2 N 6 13 3 7 1008.9 - 0.0
24/05:00pm 34.4 35.4 16.8 35 11.4 NNE 7 19 4 10 1008.7 - 0.0
24/04:30pm 34.3 34.9 16.9 35 11.3 NE 9 22 5 12 1008.4 - 0.0
24/04:00pm 34.6 34.9 16.9 35 11.5 NE 11 22 6 12 1008.3 - 0.0
24/03:30pm 35.6 36.2 16.7 32 12.3 N 9 20 5 11 1008.2 - 0.0

Other Formats:

Comma delimited format used in spreadsheet applications
http://www.bom.gov.au/fwo/IDW60801/IDW60801.94212.axf

JavaScript Object Notation format (JSON) in row-major order
http://www.bom.gov.au/fwo/IDW60801/IDW60801.94212.json